sensor_id;sensor_type;location;lat;lon;timestamp;temperature;humidity
19192;DHT22;9728;48.194;16.346;2022-10-20T00:02:09;18.80;41.80
19192;DHT22;9728;48.194;16.346;2022-10-20T00:07:14;18.80;41.80
19192;DHT22;9728;48.194;16.346;2022-10-20T00:12:19;18.80;41.90
19192;DHT22;9728;48.194;16.346;2022-10-20T00:17:23;18.80;42.00
19192;DHT22;9728;48.194;16.346;2022-10-20T00:22:28;18.70;42.70
19192;DHT22;9728;48.194;16.346;2022-10-20T00:27:33;18.60;42.00
19192;DHT22;9728;48.194;16.346;2022-10-20T00:32:36;18.60;42.10
19192;DHT22;9728;48.194;16.346;2022-10-20T00:37:41;18.60;42.20
19192;DHT22;9728;48.194;16.346;2022-10-20T00:42:45;18.60;42.30
19192;DHT22;9728;48.194;16.346;2022-10-20T00:47:53;18.50;42.30
19192;DHT22;9728;48.194;16.346;2022-10-20T00:52:59;18.50;42.40
19192;DHT22;9728;48.194;16.346;2022-10-20T00:58:04;18.50;42.40
19192;DHT22;9728;48.194;16.346;2022-10-20T01:03:12;18.40;42.40
19192;DHT22;9728;48.194;16.346;2022-10-20T01:08:18;18.40;42.50
19192;DHT22;9728;48.194;16.346;2022-10-20T01:13:28;18.40;42.60
19192;DHT22;9728;48.194;16.346;2022-10-20T01:18:36;18.30;42.70
19192;DHT22;9728;48.194;16.346;2022-10-20T01:24:04;18.20;42.60
19192;DHT22;9728;48.194;16.346;2022-10-20T01:29:18;18.20;42.80
19192;DHT22;9728;48.194;16.346;2022-10-20T01:34:30;18.20;42.90
19192;DHT22;9728;48.194;16.346;2022-10-20T01:39:38;18.10;42.90
19192;DHT22;9728;48.194;16.346;2022-10-20T01:44:45;18.10;42.90
19192;DHT22;9728;48.194;16.346;2022-10-20T01:49:50;18.00;42.90
19192;DHT22;9728;48.194;16.346;2022-10-20T01:54:54;18.00;42.90
19192;DHT22;9728;48.194;16.346;2022-10-20T02:00:04;17.90;42.90
19192;DHT22;9728;48.194;16.346;2022-10-20T02:05:23;17.90;43.20
19192;DHT22;9728;48.194;16.346;2022-10-20T02:10:33;17.80;43.20
19192;DHT22;9728;48.194;16.346;2022-10-20T02:15:45;17.80;43.30
19192;DHT22;9728;48.194;16.346;2022-10-20T02:20:51;17.70;43.30
19192;DHT22;9728;48.194;16.346;2022-10-20T02:25:57;17.60;43.20
19192;DHT22;9728;48.194;16.346;2022-10-20T02:31:05;17.60;43.30
19192;DHT22;9728;48.194;16.346;2022-10-20T02:36:15;17.60;43.40
19192;DHT22;9728;48.194;16.346;2022-10-20T02:41:18;17.50;43.50
19192;DHT22;9728;48.194;16.346;2022-10-20T02:46:23;17.50;43.50
19192;DHT22;9728;48.194;16.346;2022-10-20T02:51:26;17.40;43.50
19192;DHT22;9728;48.194;16.346;2022-10-20T02:56:30;17.40;43.50
19192;DHT22;9728;48.194;16.346;2022-10-20T03:01:35;17.30;43.60
19192;DHT22;9728;48.194;16.346;2022-10-20T03:06:38;17.30;43.70
19192;DHT22;9728;48.194;16.346;2022-10-20T03:11:42;17.20;43.70
19192;DHT22;9728;48.194;16.346;2022-10-20T03:16:47;17.20;43.70
19192;DHT22;9728;48.194;16.346;2022-10-20T03:21:50;17.20;43.80
19192;DHT22;9728;48.194;16.346;2022-10-20T03:26:53;17.10;43.70
19192;DHT22;9728;48.194;16.346;2022-10-20T03:31:58;17.10;43.80
19192;DHT22;9728;48.194;16.346;2022-10-20T03:37:02;17.00;43.90
19192;DHT22;9728;48.194;16.346;2022-10-20T03:42:05;16.90;43.80
19192;DHT22;9728;48.194;16.346;2022-10-20T03:47:10;16.90;43.90
19192;DHT22;9728;48.194;16.346;2022-10-20T03:52:14;16.80;44.00
19192;DHT22;9728;48.194;16.346;2022-10-20T03:57:18;16.80;43.90
19192;DHT22;9728;48.194;16.346;2022-10-20T04:02:30;16.70;44.00
19192;DHT22;9728;48.194;16.346;2022-10-20T04:07:35;16.70;44.20
19192;DHT22;9728;48.194;16.346;2022-10-20T04:12:39;16.60;44.00
19192;DHT22;9728;48.194;16.346;2022-10-20T04:17:44;16.60;44.10
19192;DHT22;9728;48.194;16.346;2022-10-20T04:22:47;16.50;44.20
19192;DHT22;9728;48.194;16.346;2022-10-20T04:27:51;16.50;44.20
19192;DHT22;9728;48.194;16.346;2022-10-20T04:32:55;16.50;44.30
19192;DHT22;9728;48.194;16.346;2022-10-20T04:37:59;16.40;44.40
19192;DHT22;9728;48.194;16.346;2022-10-20T04:43:02;16.40;44.40
19192;DHT22;9728;48.194;16.346;2022-10-20T04:48:07;16.30;45.10
19192;DHT22;9728;48.194;16.346;2022-10-20T04:53:11;16.40;45.00
19192;DHT22;9728;48.194;16.346;2022-10-20T04:58:14;16.40;44.80
19192;DHT22;9728;48.194;16.346;2022-10-20T05:03:19;16.40;44.70
19192;DHT22;9728;48.194;16.346;2022-10-20T05:08:22;16.40;44.70
19192;DHT22;9728;48.194;16.346;2022-10-20T05:13:26;16.30;44.60
19192;DHT22;9728;48.194;16.346;2022-10-20T05:18:31;16.30;44.60
19192;DHT22;9728;48.194;16.346;2022-10-20T05:23:34;16.30;44.70
19192;DHT22;9728;48.194;16.346;2022-10-20T05:28:38;16.40;49.20
19192;DHT22;9728;48.194;16.346;2022-10-20T05:33:45;16.90;52.20
19192;DHT22;9728;48.194;16.346;2022-10-20T05:38:49;17.70;50.90
19192;DHT22;9728;48.194;16.346;2022-10-20T05:43:56;18.50;48.60
19192;DHT22;9728;48.194;16.346;2022-10-20T05:49:02;19.00;46.40
19192;DHT22;9728;48.194;16.346;2022-10-20T05:54:08;19.30;44.60
19192;DHT22;9728;48.194;16.346;2022-10-20T05:59:12;19.30;43.80
19192;DHT22;9728;48.194;16.346;2022-10-20T06:04:19;19.20;43.10
19192;DHT22;9728;48.194;16.346;2022-10-20T06:09:24;19.10;42.60
19192;DHT22;9728;48.194;16.346;2022-10-20T06:14:28;18.90;42.60
19192;DHT22;9728;48.194;16.346;2022-10-20T06:19:33;18.60;42.50
19192;DHT22;9728;48.194;16.346;2022-10-20T06:24:36;18.40;42.60
19192;DHT22;9728;48.194;16.346;2022-10-20T06:29:39;18.20;42.80
19192;DHT22;9728;48.194;16.346;2022-10-20T06:34:44;17.90;42.90
19192;DHT22;9728;48.194;16.346;2022-10-20T06:39:47;17.80;43.20
19192;DHT22;9728;48.194;16.346;2022-10-20T06:44:50;17.50;43.30
19192;DHT22;9728;48.194;16.346;2022-10-20T06:49:57;17.40;43.50
19192;DHT22;9728;48.194;16.346;2022-10-20T06:55:01;17.30;43.80
19192;DHT22;9728;48.194;16.346;2022-10-20T07:00:05;17.10;43.90
19192;DHT22;9728;48.194;16.346;2022-10-20T07:05:10;17.10;44.20
19192;DHT22;9728;48.194;16.346;2022-10-20T07:10:14;17.00;44.40
19192;DHT22;9728;48.194;16.346;2022-10-20T07:15:17;16.90;44.50
19192;DHT22;9728;48.194;16.346;2022-10-20T07:20:22;16.90;44.70
19192;DHT22;9728;48.194;16.346;2022-10-20T07:25:25;16.80;44.90
19192;DHT22;9728;48.194;16.346;2022-10-20T07:30:29;16.80;45.10
19192;DHT22;9728;48.194;16.346;2022-10-20T07:35:34;16.80;45.20
19192;DHT22;9728;48.194;16.346;2022-10-20T07:40:38;16.80;45.50
19192;DHT22;9728;48.194;16.346;2022-10-20T07:45:41;16.80;45.50
19192;DHT22;9728;48.194;16.346;2022-10-20T07:50:46;16.80;45.60
19192;DHT22;9728;48.194;16.346;2022-10-20T07:55:50;16.90;45.70
19192;DHT22;9728;48.194;16.346;2022-10-20T08:00:53;16.90;45.70
19192;DHT22;9728;48.194;16.346;2022-10-20T08:05:58;16.90;45.70
19192;DHT22;9728;48.194;16.346;2022-10-20T08:11:02;17.00;45.90
19192;DHT22;9728;48.194;16.346;2022-10-20T08:16:06;17.00;45.90
19192;DHT22;9728;48.194;16.346;2022-10-20T08:21:15;17.10;46.60
19192;DHT22;9728;48.194;16.346;2022-10-20T08:26:21;17.20;45.90
19192;DHT22;9728;48.194;16.346;2022-10-20T08:31:25;17.20;45.90
19192;DHT22;9728;48.194;16.346;2022-10-20T08:36:30;17.30;45.90
19192;DHT22;9728;48.194;16.346;2022-10-20T08:41:36;17.40;45.80
19192;DHT22;9728;48.194;16.346;2022-10-20T08:47:02;17.60;45.70
19192;DHT22;9728;48.194;16.346;2022-10-20T08:52:11;17.60;45.70
19192;DHT22;9728;48.194;16.346;2022-10-20T08:57:21;17.70;45.80
19192;DHT22;9728;48.194;16.346;2022-10-20T09:02:25;17.80;45.80
19192;DHT22;9728;48.194;16.346;2022-10-20T09:07:32;18.00;45.90
19192;DHT22;9728;48.194;16.346;2022-10-20T09:12:39;18.10;45.70
19192;DHT22;9728;48.194;16.346;2022-10-20T09:17:45;18.30;45.70
19192;DHT22;9728;48.194;16.346;2022-10-20T09:22:50;18.40;45.70
19192;DHT22;9728;48.194;16.346;2022-10-20T09:27:55;18.70;45.80
19192;DHT22;9728;48.194;16.346;2022-10-20T09:32:59;18.80;45.50
19192;DHT22;9728;48.194;16.346;2022-10-20T09:38:16;19.10;45.40
19192;DHT22;9728;48.194;16.346;2022-10-20T09:43:20;19.30;44.90
19192;DHT22;9728;48.194;16.346;2022-10-20T09:48:26;19.60;45.20
19192;DHT22;9728;48.194;16.346;2022-10-20T09:53:33;19.80;44.90
19192;DHT22;9728;48.194;16.346;2022-10-20T09:58:38;20.00;44.40
19192;DHT22;9728;48.194;16.346;2022-10-20T10:03:49;20.30;44.60
19192;DHT22;9728;48.194;16.346;2022-10-20T10:08:57;20.50;44.30
19192;DHT22;9728;48.194;16.346;2022-10-20T10:14:02;20.80;44.00
19192;DHT22;9728;48.194;16.346;2022-10-20T10:19:15;21.00;44.00
19192;DHT22;9728;48.194;16.346;2022-10-20T10:24:35;21.20;43.00
19192;DHT22;9728;48.194;16.346;2022-10-20T10:29:39;21.40;42.20
19192;DHT22;9728;48.194;16.346;2022-10-20T10:34:56;21.60;43.10
19192;DHT22;9728;48.194;16.346;2022-10-20T10:40:12;21.70;42.00
19192;DHT22;9728;48.194;16.346;2022-10-20T10:45:33;21.90;41.90
19192;DHT22;9728;48.194;16.346;2022-10-20T10:50:46;22.00;41.90
19192;DHT22;9728;48.194;16.346;2022-10-20T10:56:02;22.10;41.80
19192;DHT22;9728;48.194;16.346;2022-10-20T11:01:18;22.20;41.20
19192;DHT22;9728;48.194;16.346;2022-10-20T11:06:29;22.30;41.20
19192;DHT22;9728;48.194;16.346;2022-10-20T11:11:45;22.50;41.40
19192;DHT22;9728;48.194;16.346;2022-10-20T11:17:03;22.50;40.80
19192;DHT22;9728;48.194;16.346;2022-10-20T11:22:16;22.60;40.60
19192;DHT22;9728;48.194;16.346;2022-10-20T11:27:25;22.70;40.60
19192;DHT22;9728;48.194;16.346;2022-10-20T11:32:33;22.70;40.30
19192;DHT22;9728;48.194;16.346;2022-10-20T11:37:41;22.70;40.20
19192;DHT22;9728;48.194;16.346;2022-10-20T11:42:53;22.70;40.40
19192;DHT22;9728;48.194;16.346;2022-10-20T11:48:03;22.70;40.20
19192;DHT22;9728;48.194;16.346;2022-10-20T11:58:55;22.60;39.90
19192;DHT22;9728;48.194;16.346;2022-10-20T12:04:29;22.60;39.90
19192;DHT22;9728;48.194;16.346;2022-10-20T12:09:55;22.50;39.80
19192;DHT22;9728;48.194;16.346;2022-10-20T12:15:19;22.50;39.80
19192;DHT22;9728;48.194;16.346;2022-10-20T12:20:57;22.40;40.10
19192;DHT22;9728;48.194;16.346;2022-10-20T12:26:36;22.40;39.90
19192;DHT22;9728;48.194;16.346;2022-10-20T12:37:26;22.30;39.90
19192;DHT22;9728;48.194;16.346;2022-10-20T12:42:33;22.30;40.30
19192;DHT22;9728;48.194;16.346;2022-10-20T12:47:45;22.30;40.40
19192;DHT22;9728;48.194;16.346;2022-10-20T12:52:50;22.30;40.20
19192;DHT22;9728;48.194;16.346;2022-10-20T13:03:41;22.20;41.30
19192;DHT22;9728;48.194;16.346;2022-10-20T13:09:16;22.20;40.30
19192;DHT22;9728;48.194;16.346;2022-10-20T13:14:32;22.20;40.20
19192;DHT22;9728;48.194;16.346;2022-10-20T13:19:45;22.20;40.30
19192;DHT22;9728;48.194;16.346;2022-10-20T13:24:49;22.20;40.90
19192;DHT22;9728;48.194;16.346;2022-10-20T13:29:57;22.30;40.60
19192;DHT22;9728;48.194;16.346;2022-10-20T13:35:06;22.20;40.50
19192;DHT22;9728;48.194;16.346;2022-10-20T13:40:19;22.20;40.40
19192;DHT22;9728;48.194;16.346;2022-10-20T13:45:32;22.20;40.40
19192;DHT22;9728;48.194;16.346;2022-10-20T13:50:44;22.20;40.40
19192;DHT22;9728;48.194;16.346;2022-10-20T13:55:58;22.20;40.40
19192;DHT22;9728;48.194;16.346;2022-10-20T14:01:06;22.30;40.20
19192;DHT22;9728;48.194;16.346;2022-10-20T14:06:33;22.30;40.40
19192;DHT22;9728;48.194;16.346;2022-10-20T14:11:37;22.30;40.00
19192;DHT22;9728;48.194;16.346;2022-10-20T14:16:48;22.30;40.40
19192;DHT22;9728;48.194;16.346;2022-10-20T14:21:55;22.20;40.00
19192;DHT22;9728;48.194;16.346;2022-10-20T14:27:00;22.20;40.10
19192;DHT22;9728;48.194;16.346;2022-10-20T14:32:05;22.20;40.20
19192;DHT22;9728;48.194;16.346;2022-10-20T14:37:25;22.20;40.20
19192;DHT22;9728;48.194;16.346;2022-10-20T14:42:31;22.20;39.90
19192;DHT22;9728;48.194;16.346;2022-10-20T14:47:38;22.20;40.20
19192;DHT22;9728;48.194;16.346;2022-10-20T14:52:45;22.10;40.00
19192;DHT22;9728;48.194;16.346;2022-10-20T14:57:54;22.10;40.00
19192;DHT22;9728;48.194;16.346;2022-10-20T15:02:58;22.10;40.10
19192;DHT22;9728;48.194;16.346;2022-10-20T15:08:20;22.10;40.20
19192;DHT22;9728;48.194;16.346;2022-10-20T15:13:28;22.00;40.00
19192;DHT22;9728;48.194;16.346;2022-10-20T15:18:32;22.00;40.20
19192;DHT22;9728;48.194;16.346;2022-10-20T15:23:42;21.90;40.20
19192;DHT22;9728;48.194;16.346;2022-10-20T15:28:46;21.90;40.20
19192;DHT22;9728;48.194;16.346;2022-10-20T15:33:51;21.80;40.20
19192;DHT22;9728;48.194;16.346;2022-10-20T15:38:56;21.80;40.30
19192;DHT22;9728;48.194;16.346;2022-10-20T15:44:02;21.80;40.30
19192;DHT22;9728;48.194;16.346;2022-10-20T15:49:10;21.70;40.30
19192;DHT22;9728;48.194;16.346;2022-10-20T15:54:17;21.60;40.40
19192;DHT22;9728;48.194;16.346;2022-10-20T15:59:21;21.60;40.40
19192;DHT22;9728;48.194;16.346;2022-10-20T16:04:25;21.50;40.50
19192;DHT22;9728;48.194;16.346;2022-10-20T16:09:31;21.50;40.60
19192;DHT22;9728;48.194;16.346;2022-10-20T16:14:34;21.40;40.60
19192;DHT22;9728;48.194;16.346;2022-10-20T16:19:39;21.40;40.70
19192;DHT22;9728;48.194;16.346;2022-10-20T16:24:45;21.30;40.70
19192;DHT22;9728;48.194;16.346;2022-10-20T16:29:49;21.20;40.80
19192;DHT22;9728;48.194;16.346;2022-10-20T16:34:53;21.20;40.90
19192;DHT22;9728;48.194;16.346;2022-10-20T16:39:58;21.20;41.00
19192;DHT22;9728;48.194;16.346;2022-10-20T16:45:02;21.10;41.10
19192;DHT22;9728;48.194;16.346;2022-10-20T16:50:07;21.00;41.20
19192;DHT22;9728;48.194;16.346;2022-10-20T16:55:13;21.00;41.30
19192;DHT22;9728;48.194;16.346;2022-10-20T17:00:16;20.90;41.30
19192;DHT22;9728;48.194;16.346;2022-10-20T17:05:21;20.90;41.50
19192;DHT22;9728;48.194;16.346;2022-10-20T17:10:29;20.80;41.50
19192;DHT22;9728;48.194;16.346;2022-10-20T17:15:34;20.80;41.70
19192;DHT22;9728;48.194;16.346;2022-10-20T17:20:39;20.70;41.70
19192;DHT22;9728;48.194;16.346;2022-10-20T17:25:45;20.60;41.70
19192;DHT22;9728;48.194;16.346;2022-10-20T17:30:50;20.60;41.90
19192;DHT22;9728;48.194;16.346;2022-10-20T17:35:55;20.60;42.00
19192;DHT22;9728;48.194;16.346;2022-10-20T17:41:06;20.60;42.10
19192;DHT22;9728;48.194;16.346;2022-10-20T17:46:12;20.50;42.20
19192;DHT22;9728;48.194;16.346;2022-10-20T17:51:22;20.50;42.40
19192;DHT22;9728;48.194;16.346;2022-10-20T17:56:35;20.50;42.60
19192;DHT22;9728;48.194;16.346;2022-10-20T18:01:42;20.50;42.70
19192;DHT22;9728;48.194;16.346;2022-10-20T18:06:49;20.40;42.60
19192;DHT22;9728;48.194;16.346;2022-10-20T18:11:55;20.40;42.80
19192;DHT22;9728;48.194;16.346;2022-10-20T18:16:59;20.40;42.90
19192;DHT22;9728;48.194;16.346;2022-10-20T18:22:04;20.40;42.80
19192;DHT22;9728;48.194;16.346;2022-10-20T18:27:10;20.40;42.90
19192;DHT22;9728;48.194;16.346;2022-10-20T18:32:16;20.30;43.10
19192;DHT22;9728;48.194;16.346;2022-10-20T18:37:21;20.30;43.00
19192;DHT22;9728;48.194;16.346;2022-10-20T18:42:30;20.30;43.10
19192;DHT22;9728;48.194;16.346;2022-10-20T18:47:35;20.30;43.10
19192;DHT22;9728;48.194;16.346;2022-10-20T18:52:43;20.30;43.10
19192;DHT22;9728;48.194;16.346;2022-10-20T18:57:49;20.20;43.10
19192;DHT22;9728;48.194;16.346;2022-10-20T19:02:57;20.20;43.30
19192;DHT22;9728;48.194;16.346;2022-10-20T19:08:03;20.20;43.30
19192;DHT22;9728;48.194;16.346;2022-10-20T19:13:10;20.20;43.40
19192;DHT22;9728;48.194;16.346;2022-10-20T19:18:16;20.20;43.40
19192;DHT22;9728;48.194;16.346;2022-10-20T19:23:22;20.10;43.40
19192;DHT22;9728;48.194;16.346;2022-10-20T19:28:29;20.10;43.50
19192;DHT22;9728;48.194;16.346;2022-10-20T19:33:34;20.00;43.60
19192;DHT22;9728;48.194;16.346;2022-10-20T19:38:39;20.00;43.50
19192;DHT22;9728;48.194;16.346;2022-10-20T19:43:51;20.00;43.60
19192;DHT22;9728;48.194;16.346;2022-10-20T19:48:56;20.00;43.70
19192;DHT22;9728;48.194;16.346;2022-10-20T19:54:01;19.90;43.70
19192;DHT22;9728;48.194;16.346;2022-10-20T19:59:10;19.90;43.80
19192;DHT22;9728;48.194;16.346;2022-10-20T20:04:16;19.90;43.90
19192;DHT22;9728;48.194;16.346;2022-10-20T20:09:21;19.90;43.80
19192;DHT22;9728;48.194;16.346;2022-10-20T20:14:32;19.90;44.60
19192;DHT22;9728;48.194;16.346;2022-10-20T20:19:38;19.90;44.00
19192;DHT22;9728;48.194;16.346;2022-10-20T20:24:43;19.80;44.00
19192;DHT22;9728;48.194;16.346;2022-10-20T20:29:48;19.80;44.10
19192;DHT22;9728;48.194;16.346;2022-10-20T20:34:52;19.80;44.10
19192;DHT22;9728;48.194;16.346;2022-10-20T20:39:56;19.80;44.00
19192;DHT22;9728;48.194;16.346;2022-10-20T20:45:01;19.80;44.00
19192;DHT22;9728;48.194;16.346;2022-10-20T20:50:06;19.70;44.00
19192;DHT22;9728;48.194;16.346;2022-10-20T20:55:10;19.70;44.00
19192;DHT22;9728;48.194;16.346;2022-10-20T21:00:16;19.70;44.00
19192;DHT22;9728;48.194;16.346;2022-10-20T21:05:20;19.70;44.00
19192;DHT22;9728;48.194;16.346;2022-10-20T21:10:23;19.60;43.90
19192;DHT22;9728;48.194;16.346;2022-10-20T21:15:29;19.60;43.90
19192;DHT22;9728;48.194;16.346;2022-10-20T21:20:33;19.60;43.90
19192;DHT22;9728;48.194;16.346;2022-10-20T21:25:37;19.60;43.90
19192;DHT22;9728;48.194;16.346;2022-10-20T21:30:43;19.60;43.80
19192;DHT22;9728;48.194;16.346;2022-10-20T21:35:46;19.50;43.70
19192;DHT22;9728;48.194;16.346;2022-10-20T21:40:50;19.50;43.70
19192;DHT22;9728;48.194;16.346;2022-10-20T21:45:55;19.50;43.70
19192;DHT22;9728;48.194;16.346;2022-10-20T21:50:58;19.50;43.70
19192;DHT22;9728;48.194;16.346;2022-10-20T21:56:08;19.40;43.70
19192;DHT22;9728;48.194;16.346;2022-10-20T22:01:18;19.40;43.70
19192;DHT22;9728;48.194;16.346;2022-10-20T22:06:23;19.40;43.70
19192;DHT22;9728;48.194;16.346;2022-10-20T22:11:29;19.30;43.60
19192;DHT22;9728;48.194;16.346;2022-10-20T22:16:36;19.30;43.70
19192;DHT22;9728;48.194;16.346;2022-10-20T22:21:42;19.30;43.70
19192;DHT22;9728;48.194;16.346;2022-10-20T22:26:48;19.30;43.70
19192;DHT22;9728;48.194;16.346;2022-10-20T22:31:54;19.20;43.70
19192;DHT22;9728;48.194;16.346;2022-10-20T22:36:57;19.20;43.70
19192;DHT22;9728;48.194;16.346;2022-10-20T22:42:01;19.20;43.70
19192;DHT22;9728;48.194;16.346;2022-10-20T22:47:05;19.20;43.70
19192;DHT22;9728;48.194;16.346;2022-10-20T22:52:09;19.10;43.70
19192;DHT22;9728;48.194;16.346;2022-10-20T22:57:12;19.10;43.70
19192;DHT22;9728;48.194;16.346;2022-10-20T23:02:17;19.10;43.70
19192;DHT22;9728;48.194;16.346;2022-10-20T23:07:21;19.00;43.70
19192;DHT22;9728;48.194;16.346;2022-10-20T23:12:24;19.00;43.70
19192;DHT22;9728;48.194;16.346;2022-10-20T23:17:29;19.00;43.70
19192;DHT22;9728;48.194;16.346;2022-10-20T23:22:33;19.00;43.70
19192;DHT22;9728;48.194;16.346;2022-10-20T23:27:36;19.00;43.70
19192;DHT22;9728;48.194;16.346;2022-10-20T23:32:41;18.90;43.70
19192;DHT22;9728;48.194;16.346;2022-10-20T23:37:45;18.90;43.70
19192;DHT22;9728;48.194;16.346;2022-10-20T23:42:48;18.90;43.70
19192;DHT22;9728;48.194;16.346;2022-10-20T23:47:53;18.90;44.10
19192;DHT22;9728;48.194;16.346;2022-10-20T23:52:56;18.90;43.80
19192;DHT22;9728;48.194;16.346;2022-10-20T23:57:59;18.80;43.80
